Time;durP1;ratioP1;P1;durP2;ratioP2;P2;SDS_P1;SDS_P2;PMS_P1;PMS_P2;Temp;Humidity;BMP_temperature;BMP_pressure;BME280_temperature;BME280_humidity;BME280_pressure;Samples;Min_cycle;Max_cycle;Signal;HPM_P1;HPM_P2
2022/11/28 00:01:14;;;;;;;8.30;3.05;;;;;;;;;;6078417;23;20026;-69
2022/11/28 00:03:41;;;;;;;7.75;2.70;;;;;;;;;;6105832;23;20034;-68
2022/11/28 00:06:08;;;;;;;7.63;3.00;;;;;;;;;;6047733;23;20056;-69
2022/11/28 00:08:35;;;;;;;6.80;2.85;;;;;;;;;;6050017;23;20114;-66
2022/11/28 00:11:03;;;;;;;6.80;2.85;;;;;;;;;;6078619;23;20025;-63
2022/11/28 00:13:29;;;;;;;8.68;3.33;;;;;;;;;;6080290;23;20030;-66
2022/11/28 00:15:57;;;;;;;9.82;3.30;;;;;;;;;;6051484;23;20028;-67
2022/11/28 00:18:25;;;;;;;5.63;2.70;;;;;;;;;;6069890;23;20032;-66
2022/11/28 00:20:52;;;;;;;6.57;2.85;;;;;;;;;;6027662;23;20108;-67
2022/11/28 00:23:19;;;;;;;6.90;3.05;;;;;;;;;;6052219;23;20030;-65
2022/11/28 00:25:45;;;;;;;8.82;3.33;;;;;;;;;;6050680;23;20131;-68
2022/11/28 00:28:11;;;;;;;7.13;3.00;;;;;;;;;;6048438;23;20030;-68
2022/11/28 00:30:38;;;;;;;7.32;3.10;;;;;;;;;;6052114;23;20109;-66
2022/11/28 00:33:04;;;;;;;6.55;3.13;;;;;;;;;;6069043;23;20085;-66
2022/11/28 00:35:32;;;;;;;5.88;2.65;;;;;;;;;;6038395;23;20026;-66
2022/11/28 00:37:59;;;;;;;8.37;3.23;;;;;;;;;;6105578;23;20026;-70
2022/11/28 00:40:25;;;;;;;7.25;2.97;;;;;;;;;;6059392;23;20029;-69
2022/11/28 00:42:51;;;;;;;6.97;2.97;;;;;;;;;;6077527;23;20025;-69
2022/11/28 00:45:18;;;;;;;7.13;2.95;;;;;;;;;;6028486;23;20110;-65
2022/11/28 00:47:47;;;;;;;7.45;3.10;;;;;;;;;;6075820;23;20032;-68
2022/11/28 00:50:13;;;;;;;6.20;2.90;;;;;;;;;;6046279;23;20052;-65
2022/11/28 00:52:41;;;;;;;5.75;2.78;;;;;;;;;;6077086;23;20035;-68
2022/11/28 00:55:08;;;;;;;7.00;2.70;;;;;;;;;;6129023;23;20099;-66
2022/11/28 00:57:34;;;;;;;6.72;2.45;;;;;;;;;;6130952;23;20025;-65
2022/11/28 01:00:01;;;;;;;6.85;2.60;;;;;;;;;;6116308;23;20045;-68
2022/11/28 01:02:28;;;;;;;7.22;3.08;;;;;;;;;;6124374;23;20025;-68
2022/11/28 01:04:55;;;;;;;5.53;2.72;;;;;;;;;;6118605;23;20027;-65
2022/11/28 01:07:21;;;;;;;6.20;2.67;;;;;;;;;;6130221;23;20029;-66
2022/11/28 01:09:49;;;;;;;6.75;2.63;;;;;;;;;;6108500;23;20029;-63
2022/11/28 01:12:16;;;;;;;6.72;2.95;;;;;;;;;;6097448;23;20025;-64
2022/11/28 01:14:42;;;;;;;6.63;2.75;;;;;;;;;;6124265;23;20044;-67
2022/11/28 01:17:09;;;;;;;7.07;2.50;;;;;;;;;;6091284;23;20033;-70
2022/11/28 01:19:35;;;;;;;6.43;2.75;;;;;;;;;;6132880;23;20112;-65
2022/11/28 01:22:02;;;;;;;6.78;2.72;;;;;;;;;;6094356;23;20248;-66
2022/11/28 01:24:28;;;;;;;6.30;2.90;;;;;;;;;;6134531;23;20088;-69
2022/11/28 01:26:56;;;;;;;6.32;2.63;;;;;;;;;;6140520;23;20022;-65
2022/11/28 01:29:23;;;;;;;6.35;2.75;;;;;;;;;;6107088;23;20036;-66
2022/11/28 01:31:50;;;;;;;6.13;2.53;;;;;;;;;;6119767;23;20025;-65
2022/11/28 01:34:17;;;;;;;8.23;3.13;;;;;;;;;;6120695;23;20033;-68
2022/11/28 01:36:43;;;;;;;6.65;2.65;;;;;;;;;;6113535;23;20029;-68
2022/11/28 01:39:11;;;;;;;6.28;2.60;;;;;;;;;;6106323;23;20085;-69
2022/11/28 01:41:38;;;;;;;8.18;2.70;;;;;;;;;;6133245;23;20028;-68
2022/11/28 01:44:08;;;;;;;6.88;2.70;;;;;;;;;;6106669;23;20025;-69
2022/11/28 01:46:35;;;;;;;6.38;2.28;;;;;;;;;;6124950;23;20119;-65
2022/11/28 01:49:05;;;;;;;5.88;2.47;;;;;;;;;;6118733;23;20028;-68
2022/11/28 01:51:32;;;;;;;7.10;2.60;;;;;;;;;;6133296;23;20036;-66
2022/11/28 01:53:59;;;;;;;8.70;2.53;;;;;;;;;;6093538;23;20108;-68
2022/11/28 01:56:27;;;;;;;6.78;2.83;;;;;;;;;;6120143;23;20025;-67
2022/11/28 01:58:55;;;;;;;7.20;2.72;;;;;;;;;;6081294;23;20025;-68
2022/11/28 02:01:24;;;;;;;5.82;2.25;;;;;;;;;;6113210;23;20037;-64
2022/11/28 02:03:50;;;;;;;5.85;2.30;;;;;;;;;;6111916;23;20100;-68
2022/11/28 02:06:18;;;;;;;5.75;2.42;;;;;;;;;;6085057;23;20029;-69
2022/11/28 02:08:45;;;;;;;6.03;2.90;;;;;;;;;;6094016;23;20031;-68
2022/11/28 02:11:29;;;;;;;6.18;2.50;;;;;;;;;;6108746;23;20033;-65
2022/11/28 02:14:05;;;;;;;5.80;2.13;;;;;;;;;;6094040;23;20021;-68
2022/11/28 02:16:41;;;;;;;5.65;2.47;;;;;;;;;;6099692;23;21391;-64
2022/11/28 02:19:21;;;;;;;5.57;2.35;;;;;;;;;;6108451;23;20060;-69
2022/11/28 02:21:55;;;;;;;4.97;2.40;;;;;;;;;;6108755;23;20103;-69
2022/11/28 02:24:39;;;;;;;6.05;2.50;;;;;;;;;;6076566;23;20029;-65
2022/11/28 02:27:34;;;;;;;5.20;2.40;;;;;;;;;;6106142;23;20037;-68
2022/11/28 02:30:06;;;;;;;5.40;2.22;;;;;;;;;;6018134;23;20037;-69
2022/11/28 02:32:49;;;;;;;5.03;2.40;;;;;;;;;;6127606;23;20032;-68
2022/11/28 02:35:19;;;;;;;4.32;2.20;;;;;;;;;;6089091;23;20068;-66
2022/11/28 02:37:50;;;;;;;8.23;2.67;;;;;;;;;;6086310;23;20104;-68
2022/11/28 02:40:21;;;;;;;6.00;2.17;;;;;;;;;;6086841;23;20084;-65
2022/11/28 02:42:53;;;;;;;5.50;2.15;;;;;;;;;;6082070;23;20029;-67
2022/11/28 02:45:23;;;;;;;6.15;2.40;;;;;;;;;;6090191;23;20025;-65
2022/11/28 02:47:55;;;;;;;4.30;1.98;;;;;;;;;;6108935;23;20097;-68
2022/11/28 02:50:24;;;;;;;6.38;2.53;;;;;;;;;;6087384;23;20037;-66
2022/11/28 02:52:52;;;;;;;5.57;2.55;;;;;;;;;;6092437;23;20025;-70
2022/11/28 02:55:19;;;;;;;5.05;2.13;;;;;;;;;;6106425;23;20035;-67
2022/11/28 02:57:48;;;;;;;4.07;2.05;;;;;;;;;;6131283;23;20075;-68
2022/11/28 03:00:25;;;;;;;7.28;2.40;;;;;;;;;;6124458;23;20029;-68
2022/11/28 03:02:59;;;;;;;6.30;2.58;;;;;;;;;;6053222;23;20033;-67
2022/11/28 03:05:27;;;;;;;5.03;1.98;;;;;;;;;;6098926;23;20037;-66
2022/11/28 03:08:00;;;;;;;4.28;2.08;;;;;;;;;;6131683;23;20031;-69
2022/11/28 03:10:29;;;;;;;6.18;2.60;;;;;;;;;;6095761;23;20025;-70
2022/11/28 03:13:00;;;;;;;5.40;2.20;;;;;;;;;;6087128;23;20029;-67
2022/11/28 03:15:30;;;;;;;4.82;2.05;;;;;;;;;;6147643;23;20113;-68
2022/11/28 03:18:02;;;;;;;4.20;2.03;;;;;;;;;;6130965;23;20035;-67
2022/11/28 03:20:31;;;;;;;4.93;2.40;;;;;;;;;;6108706;23;20128;-65
2022/11/28 03:23:11;;;;;;;3.78;1.95;;;;;;;;;;6078071;23;20100;-69
2022/11/28 03:25:42;;;;;;;5.00;2.13;;;;;;;;;;6075995;23;20029;-67
2022/11/28 03:28:11;;;;;;;7.63;2.58;;;;;;;;;;6096457;23;20037;-65
2022/11/28 03:30:39;;;;;;;6.05;2.40;;;;;;;;;;6118773;23;20040;-64
2022/11/28 03:33:08;;;;;;;3.85;1.73;;;;;;;;;;6100373;23;20025;-64
2022/11/28 03:35:38;;;;;;;6.35;2.65;;;;;;;;;;6088387;23;20048;-66
2022/11/28 03:38:07;;;;;;;5.30;1.85;;;;;;;;;;6107233;23;20100;-63
2022/11/28 03:40:38;;;;;;;4.43;2.20;;;;;;;;;;6123463;23;20293;-68
2022/11/28 03:43:08;;;;;;;5.03;2.15;;;;;;;;;;6104101;23;20022;-65
2022/11/28 03:45:38;;;;;;;5.07;2.20;;;;;;;;;;6100740;23;20025;-67
2022/11/28 03:48:06;;;;;;;4.90;2.00;;;;;;;;;;6133618;23;20025;-65
2022/11/28 03:50:33;;;;;;;;;;;;;;;;;;6097838;23;20091;-63
2022/11/28 03:53:03;;;;;;;6.75;2.03;;;;;;;;;;6104050;23;19932;-67
2022/11/28 03:55:32;;;;;;;5.05;1.90;;;;;;;;;;6099150;23;20026;-68
2022/11/28 03:58:01;;;;;;;9.23;2.25;;;;;;;;;;6108566;23;20093;-64
2022/11/28 04:00:28;;;;;;;5.55;1.88;;;;;;;;;;6107439;23;20026;-64
2022/11/28 04:02:57;;;;;;;4.03;1.83;;;;;;;;;;6061484;23;20035;-66
2022/11/28 04:05:23;;;;;;;;;;;;;;;;;;6101965;23;20029;-69
2022/11/28 04:07:51;;;;;;;4.07;1.70;;;;;;;;;;6133804;23;19972;-66
2022/11/28 04:10:21;;;;;;;5.03;1.92;;;;;;;;;;6131653;23;20021;-64
2022/11/28 04:12:54;;;;;;;3.70;1.90;;;;;;;;;;6105280;23;20063;-71
2022/11/28 04:15:24;;;;;;;4.68;2.00;;;;;;;;;;6124485;23;20215;-66
2022/11/28 04:17:54;;;;;;;4.07;1.80;;;;;;;;;;6097332;23;20088;-69
2022/11/28 04:20:25;;;;;;;6.60;2.05;;;;;;;;;;6107921;23;20029;-66
2022/11/28 04:22:53;;;;;;;4.25;1.90;;;;;;;;;;6104181;23;20025;-66
2022/11/28 04:25:23;;;;;;;4.65;1.90;;;;;;;;;;6122969;23;20025;-67
2022/11/28 04:27:54;;;;;;;6.25;2.08;;;;;;;;;;6102901;23;20025;-65
2022/11/28 04:30:20;;;;;;;3.33;1.55;;;;;;;;;;6108378;23;20029;-70
2022/11/28 04:32:49;;;;;;;4.55;1.88;;;;;;;;;;6153573;23;20033;-65
2022/11/28 04:35:18;;;;;;;3.10;1.80;;;;;;;;;;6151290;23;20025;-70
2022/11/28 04:37:47;;;;;;;5.30;1.92;;;;;;;;;;6102159;23;20029;-65
2022/11/28 04:40:14;;;;;;;6.22;2.00;;;;;;;;;;6080426;23;20113;-64
2022/11/28 04:42:45;;;;;;;4.85;1.73;;;;;;;;;;6085235;23;20047;-68
2022/11/28 04:45:13;;;;;;;4.45;1.88;;;;;;;;;;6111906;23;20026;-68
2022/11/28 04:47:40;;;;;;;3.75;1.90;;;;;;;;;;6108431;23;20025;-64
2022/11/28 04:50:07;;;;;;;3.65;1.60;;;;;;;;;;6132774;23;20084;-66
2022/11/28 04:52:36;;;;;;;5.53;2.00;;;;;;;;;;6127460;23;20033;-67
2022/11/28 04:55:06;;;;;;;3.42;1.58;;;;;;;;;;6134021;23;20029;-66
2022/11/28 04:57:35;;;;;;;4.28;2.08;;;;;;;;;;6097871;23;20032;-66
2022/11/28 05:00:06;;;;;;;5.03;1.80;;;;;;;;;;6097766;23;20029;-67
2022/11/28 05:02:36;;;;;;;4.18;1.80;;;;;;;;;;6075989;23;20029;-68
2022/11/28 05:05:07;;;;;;;4.07;1.35;;;;;;;;;;6083845;23;20028;-67
2022/11/28 05:07:34;;;;;;;5.18;2.10;;;;;;;;;;6083558;23;20032;-67
2022/11/28 05:10:01;;;;;;;3.17;1.70;;;;;;;;;;6084111;23;20021;-70
2022/11/28 05:12:27;;;;;;;4.63;1.90;;;;;;;;;;6102601;23;20025;-70
2022/11/28 05:14:53;;;;;;;3.35;1.50;;;;;;;;;;6109309;23;20111;-69
2022/11/28 05:17:21;;;;;;;4.03;1.80;;;;;;;;;;6087076;23;20027;-68
2022/11/28 05:19:49;;;;;;;3.47;1.63;;;;;;;;;;6084620;23;20032;-67
2022/11/28 05:22:16;;;;;;;5.57;1.93;;;;;;;;;;6078880;23;20049;-67
2022/11/28 05:24:42;;;;;;;3.72;1.65;;;;;;;;;;6073983;23;20026;-69
2022/11/28 05:27:10;;;;;;;3.97;1.90;;;;;;;;;;6106392;23;20045;-67
2022/11/28 05:29:42;;;;;;;4.35;1.80;;;;;;;;;;6083482;23;20035;-68
2022/11/28 05:32:08;;;;;;;4.15;1.83;;;;;;;;;;6067884;23;20026;-70
2022/11/28 05:34:36;;;;;;;4.05;1.85;;;;;;;;;;6096367;23;20025;-68
2022/11/28 05:37:03;;;;;;;3.83;1.70;;;;;;;;;;6132778;23;20018;-67
2022/11/28 05:39:30;;;;;;;3.22;1.55;;;;;;;;;;6086352;23;20021;-71
2022/11/28 05:41:57;;;;;;;3.58;1.77;;;;;;;;;;6060682;23;20024;-66
2022/11/28 05:44:23;;;;;;;4.10;1.70;;;;;;;;;;6106943;23;20033;-67
2022/11/28 05:46:50;;;;;;;5.78;1.50;;;;;;;;;;6097730;23;20024;-68
2022/11/28 05:49:19;;;;;;;3.88;1.63;;;;;;;;;;6081123;23;20049;-68
2022/11/28 05:51:47;;;;;;;3.58;1.63;;;;;;;;;;6086981;23;20026;-63
2022/11/28 05:54:14;;;;;;;4.00;1.80;;;;;;;;;;6119372;23;20030;-66
2022/11/28 05:56:40;;;;;;;3.92;1.70;;;;;;;;;;6108330;23;20219;-72
2022/11/28 05:59:07;;;;;;;4.75;1.60;;;;;;;;;;6107496;23;20022;-67
2022/11/28 06:01:33;;;;;;;3.88;1.65;;;;;;;;;;6108525;23;20043;-68
2022/11/28 06:04:00;;;;;;;4.53;1.70;;;;;;;;;;6109705;23;20025;-69
2022/11/28 06:06:28;;;;;;;4.95;1.77;;;;;;;;;;6122572;23;20072;-64
2022/11/28 06:08:56;;;;;;;3.72;1.75;;;;;;;;;;6106594;23;20037;-70
2022/11/28 06:11:24;;;;;;;2.60;1.40;;;;;;;;;;6094862;23;20035;-63
2022/11/28 06:13:51;;;;;;;3.15;1.70;;;;;;;;;;6134239;23;20300;-68
2022/11/28 06:16:18;;;;;;;3.40;1.70;;;;;;;;;;6145022;23;20021;-65
2022/11/28 06:18:45;;;;;;;3.28;1.35;;;;;;;;;;6144698;23;20112;-68
2022/11/28 06:21:13;;;;;;;3.10;1.40;;;;;;;;;;6128740;23;20087;-68
2022/11/28 06:23:40;;;;;;;3.53;1.80;;;;;;;;;;6135219;23;20033;-67
2022/11/28 06:26:09;;;;;;;4.22;1.60;;;;;;;;;;6108191;23;20129;-69
2022/11/28 06:28:35;;;;;;;2.95;1.50;;;;;;;;;;6110810;23;20091;-68
2022/11/28 06:31:02;;;;;;;4.05;1.42;;;;;;;;;;6104756;23;20021;-66
2022/11/28 06:33:28;;;;;;;3.38;1.60;;;;;;;;;;6127626;23;20041;-67
2022/11/28 06:35:59;;;;;;;3.03;1.52;;;;;;;;;;6120506;23;20026;-65
2022/11/28 06:38:25;;;;;;;4.32;1.80;;;;;;;;;;6095914;23;20025;-65
2022/11/28 06:40:52;;;;;;;4.05;1.70;;;;;;;;;;6117290;23;20029;-71
2022/11/28 06:43:20;;;;;;;3.55;1.70;;;;;;;;;;6084201;23;20112;-67
2022/11/28 06:45:46;;;;;;;3.17;1.35;;;;;;;;;;6107813;23;20025;-67
2022/11/28 06:48:13;;;;;;;2.63;1.60;;;;;;;;;;6108650;23;20048;-69
2022/11/28 06:50:39;;;;;;;3.90;1.67;;;;;;;;;;6093440;23;20030;-71
2022/11/28 06:53:06;;;;;;;3.47;1.55;;;;;;;;;;6105358;23;20108;-68
2022/11/28 06:55:32;;;;;;;3.92;1.50;;;;;;;;;;6128176;23;20025;-68
2022/11/28 06:57:59;;;;;;;3.72;1.85;;;;;;;;;;6107957;23;20025;-67
2022/11/28 07:00:29;;;;;;;3.78;1.55;;;;;;;;;;6134114;23;20079;-65
2022/11/28 07:02:57;;;;;;;2.42;1.35;;;;;;;;;;6091234;23;20036;-67
2022/11/28 07:05:26;;;;;;;3.30;1.60;;;;;;;;;;6110858;23;20027;-64
2022/11/28 07:07:53;;;;;;;4.07;1.58;;;;;;;;;;6097782;23;20021;-69
2022/11/28 07:10:19;;;;;;;2.90;1.52;;;;;;;;;;6122942;23;20035;-67
2022/11/28 07:12:46;;;;;;;3.80;1.80;;;;;;;;;;6103241;23;20071;-69
2022/11/28 07:15:13;;;;;;;3.08;1.30;;;;;;;;;;6107431;23;20025;-67
2022/11/28 07:17:41;;;;;;;3.50;1.50;;;;;;;;;;6061201;23;20029;-67
2022/11/28 07:20:08;;;;;;;3.35;1.45;;;;;;;;;;6096437;23;20120;-67
2022/11/28 07:22:38;;;;;;;4.35;1.80;;;;;;;;;;6124875;23;20036;-70
2022/11/28 07:25:05;;;;;;;2.70;1.42;;;;;;;;;;6115366;23;20155;-67
2022/11/28 07:27:32;;;;;;;3.65;1.77;;;;;;;;;;6100724;23;20030;-68
2022/11/28 07:29:58;;;;;;;3.83;1.77;;;;;;;;;;6100153;23;20032;-65
2022/11/28 07:32:25;;;;;;;2.72;1.40;;;;;;;;;;6104710;23;20169;-66
2022/11/28 07:34:52;;;;;;;4.18;1.83;;;;;;;;;;6113134;23;20026;-64
2022/11/28 07:37:19;;;;;;;3.73;1.57;;;;;;;;;;6113195;23;20024;-64
2022/11/28 07:39:46;;;;;;;3.92;1.63;;;;;;;;;;6109349;23;20080;-68
2022/11/28 07:42:13;;;;;;;3.58;1.70;;;;;;;;;;6131509;23;20031;-69
2022/11/28 07:44:41;;;;;;;3.67;1.58;;;;;;;;;;6085634;23;20076;-68
2022/11/28 07:47:07;;;;;;;2.95;1.75;;;;;;;;;;6096819;23;20025;-64
2022/11/28 07:49:34;;;;;;;3.75;1.73;;;;;;;;;;6108618;23;20022;-67
2022/11/28 07:52:01;;;;;;;4.18;1.88;;;;;;;;;;6132008;23;20033;-68
2022/11/28 07:54:28;;;;;;;2.73;1.40;;;;;;;;;;6124223;23;20056;-66
2022/11/28 07:56:54;;;;;;;2.78;1.52;;;;;;;;;;6091862;23;20022;-65
2022/11/28 07:59:21;;;;;;;3.97;1.77;;;;;;;;;;6155116;23;20025;-69
2022/11/28 08:01:48;;;;;;;2.88;1.42;;;;;;;;;;6136683;23;20025;-67
2022/11/28 08:04:14;;;;;;;3.20;1.40;;;;;;;;;;6106912;23;20026;-67
2022/11/28 08:06:42;;;;;;;3.00;1.40;;;;;;;;;;6083852;23;20435;-67
2022/11/28 08:09:10;;;;;;;2.47;1.25;;;;;;;;;;6106419;23;20076;-67
2022/11/28 08:11:38;;;;;;;4.20;1.73;;;;;;;;;;6107771;23;20039;-64
2022/11/28 08:14:05;;;;;;;2.53;1.20;;;;;;;;;;6106010;23;20029;-69
2022/11/28 08:16:32;;;;;;;3.72;1.42;;;;;;;;;;6065321;23;20045;-68
2022/11/28 08:19:01;;;;;;;4.05;1.60;;;;;;;;;;6118622;23;20021;-71
2022/11/28 08:21:28;;;;;;;3.70;1.52;;;;;;;;;;6131994;23;20029;-68
2022/11/28 08:23:55;;;;;;;3.38;1.48;;;;;;;;;;6108108;23;20033;-67
2022/11/28 08:26:24;;;;;;;3.08;1.60;;;;;;;;;;6090694;23;20033;-68
2022/11/28 08:28:52;;;;;;;3.03;1.52;;;;;;;;;;6116521;23;20032;-69
2022/11/28 08:31:20;;;;;;;3.72;1.33;;;;;;;;;;6109311;23;20025;-69
2022/11/28 08:33:47;;;;;;;3.05;1.50;;;;;;;;;;6119358;23;20021;-67
2022/11/28 08:36:15;;;;;;;4.75;1.70;;;;;;;;;;6056366;23;20029;-66
2022/11/28 08:38:45;;;;;;;2.78;1.60;;;;;;;;;;6112935;23;20029;-65
2022/11/28 08:41:12;;;;;;;2.72;1.70;;;;;;;;;;6094661;23;20025;-67
2022/11/28 08:43:40;;;;;;;3.25;1.60;;;;;;;;;;6097665;23;20029;-69
2022/11/28 08:46:09;;;;;;;2.75;1.55;;;;;;;;;;6101936;23;20021;-69
2022/11/28 08:48:35;;;;;;;3.90;1.58;;;;;;;;;;6125848;23;20025;-67
2022/11/28 08:51:02;;;;;;;3.42;1.65;;;;;;;;;;6106719;23;20107;-69
2022/11/28 08:53:28;;;;;;;2.88;1.52;;;;;;;;;;6118181;23;20029;-64
2022/11/28 08:55:55;;;;;;;3.38;1.70;;;;;;;;;;6131375;23;20032;-66
2022/11/28 08:58:24;;;;;;;3.75;1.73;;;;;;;;;;6088273;23;20018;-70
2022/11/28 09:00:52;;;;;;;3.92;1.73;;;;;;;;;;6123709;23;21032;-70
2022/11/28 09:03:19;;;;;;;3.70;1.80;;;;;;;;;;6097167;23;20027;-66
2022/11/28 09:05:46;;;;;;;5.25;1.80;;;;;;;;;;6129957;23;20117;-69
2022/11/28 09:08:13;;;;;;;3.88;1.65;;;;;;;;;;6114327;23;20025;-70
2022/11/28 09:10:40;;;;;;;3.58;1.80;;;;;;;;;;6100213;23;20025;-66
2022/11/28 09:13:07;;;;;;;2.92;1.40;;;;;;;;;;6133416;23;20025;-68
2022/11/28 09:15:35;;;;;;;3.58;1.70;;;;;;;;;;6132982;23;20040;-68
2022/11/28 09:18:03;;;;;;;3.83;1.70;;;;;;;;;;6076786;23;20018;-66
2022/11/28 09:20:30;;;;;;;4.17;1.87;;;;;;;;;;6103385;23;20036;-68
2022/11/28 09:22:59;;;;;;;4.38;1.70;;;;;;;;;;6110284;23;20268;-66
2022/11/28 09:25:26;;;;;;;3.72;1.83;;;;;;;;;;6109525;23;20030;-69
2022/11/28 09:27:52;;;;;;;3.80;1.90;;;;;;;;;;6104249;23;20024;-66
2022/11/28 09:30:21;;;;;;;3.72;1.85;;;;;;;;;;6097620;23;20025;-66
2022/11/28 09:32:48;;;;;;;3.75;1.70;;;;;;;;;;6086744;23;20057;-64
2022/11/28 09:35:16;;;;;;;4.65;1.88;;;;;;;;;;6064445;23;20027;-67
2022/11/28 09:37:43;;;;;;;2.58;1.65;;;;;;;;;;6062710;23;20025;-67
2022/11/28 09:40:14;;;;;;;4.07;1.83;;;;;;;;;;6099727;23;20025;-68
2022/11/28 09:42:43;;;;;;;2.92;1.70;;;;;;;;;;6073456;23;20025;-65
2022/11/28 09:45:11;;;;;;;3.90;1.55;;;;;;;;;;6111457;23;20018;-67
2022/11/28 09:47:40;;;;;;;7.55;1.90;;;;;;;;;;6053197;23;20080;-66
2022/11/28 09:50:09;;;;;;;;;;;;;;;;;;6134779;23;20045;-67
2022/11/28 09:52:39;;;;;;;3.13;1.38;;;;;;;;;;6099182;23;19921;-68
2022/11/28 09:55:14;;;;;;;4.43;1.67;;;;;;;;;;6124224;23;20116;-66
2022/11/28 09:57:42;;;;;;;2.85;1.63;;;;;;;;;;6105423;23;20171;-65
2022/11/28 10:00:15;;;;;;;3.47;1.73;;;;;;;;;;6110060;23;20026;-65
2022/11/28 10:02:44;;;;;;;2.80;1.60;;;;;;;;;;6100797;23;20036;-67
2022/11/28 10:05:17;;;;;;;3.30;1.65;;;;;;;;;;6099859;23;20020;-70
2022/11/28 10:07:51;;;;;;;4.68;2.05;;;;;;;;;;6127745;23;20025;-69
2022/11/28 10:10:22;;;;;;;3.85;2.03;;;;;;;;;;6133982;23;20036;-69
2022/11/28 10:12:54;;;;;;;3.90;2.08;;;;;;;;;;6106029;23;21004;-70
2022/11/28 10:15:25;;;;;;;4.28;1.73;;;;;;;;;;6118249;23;20200;-70
2022/11/28 10:17:58;;;;;;;2.95;1.50;;;;;;;;;;6102969;23;20033;-66
2022/11/28 10:20:27;;;;;;;5.80;2.08;;;;;;;;;;6128203;23;20030;-69
2022/11/28 10:22:56;;;;;;;2.78;1.67;;;;;;;;;;6095300;23;20021;-67
2022/11/28 10:25:26;;;;;;;3.45;1.63;;;;;;;;;;6133608;23;20064;-67
2022/11/28 10:27:54;;;;;;;3.85;1.52;;;;;;;;;;6128210;23;20034;-66
2022/11/28 10:30:22;;;;;;;4.53;1.80;;;;;;;;;;6095318;23;20021;-65
2022/11/28 10:32:53;;;;;;;3.65;1.70;;;;;;;;;;6090900;23;20060;-66
2022/11/28 10:35:25;;;;;;;3.97;1.80;;;;;;;;;;6117659;23;20091;-66
2022/11/28 10:37:52;;;;;;;3.42;1.77;;;;;;;;;;6118476;23;20036;-67
2022/11/28 10:40:25;;;;;;;4.07;2.10;;;;;;;;;;6107427;23;20036;-68
2022/11/28 10:42:55;;;;;;;4.10;2.05;;;;;;;;;;6118587;23;20035;-68
2022/11/28 10:45:26;;;;;;;3.70;1.77;;;;;;;;;;6111517;23;20025;-68
2022/11/28 10:48:03;;;;;;;4.72;1.95;;;;;;;;;;6116993;23;20100;-67
2022/11/28 10:50:33;;;;;;;4.28;1.77;;;;;;;;;;6070840;23;20026;-66
2022/11/28 10:53:01;;;;;;;3.83;1.80;;;;;;;;;;6107069;23;20033;-68
2022/11/28 10:55:34;;;;;;;4.27;2.10;;;;;;;;;;6090912;23;20025;-66
2022/11/28 10:58:04;;;;;;;3.92;1.80;;;;;;;;;;6088611;23;20029;-68
2022/11/28 11:00:31;;;;;;;5.47;2.22;;;;;;;;;;6111534;23;20021;-64
2022/11/28 11:03:01;;;;;;;4.25;1.55;;;;;;;;;;6108460;23;20036;-69
2022/11/28 11:05:28;;;;;;;4.57;1.98;;;;;;;;;;6133133;23;20026;-64
2022/11/28 11:07:57;;;;;;;4.18;1.98;;;;;;;;;;6121494;23;20067;-67
2022/11/28 11:10:26;;;;;;;4.35;1.85;;;;;;;;;;6128549;23;20025;-66
2022/11/28 11:12:54;;;;;;;3.95;1.70;;;;;;;;;;6133523;23;20187;-68
2022/11/28 11:15:23;;;;;;;4.25;1.83;;;;;;;;;;6108244;23;20028;-68
2022/11/28 11:17:50;;;;;;;4.18;2.13;;;;;;;;;;6124565;23;20084;-69
2022/11/28 11:20:36;;;;;;;3.13;1.65;;;;;;;;;;6134062;23;20112;-68
2022/11/28 11:23:11;;;;;;;3.58;1.90;;;;;;;;;;6109410;23;20021;-68
2022/11/28 11:25:40;;;;;;;3.67;1.70;;;;;;;;;;6135655;23;20029;-69
2022/11/28 11:28:24;;;;;;;3.72;1.90;;;;;;;;;;6103677;23;20029;-65
2022/11/28 11:30:57;;;;;;;4.47;2.00;;;;;;;;;;6153939;23;20021;-67
2022/11/28 11:33:26;;;;;;;4.15;1.88;;;;;;;;;;6080727;23;20037;-68
2022/11/28 11:35:53;;;;;;;3.83;1.85;;;;;;;;;;6107905;23;20029;-66
2022/11/28 11:38:27;;;;;;;4.20;2.10;;;;;;;;;;6103409;23;20031;-65
2022/11/28 11:40:55;;;;;;;4.70;2.10;;;;;;;;;;6112182;23;21348;-67
2022/11/28 11:43:27;;;;;;;4.82;2.25;;;;;;;;;;6132476;23;20025;-66
2022/11/28 11:46:04;;;;;;;5.43;2.47;;;;;;;;;;6119302;23;20031;-67
2022/11/28 11:48:34;;;;;;;3.85;2.03;;;;;;;;;;6080815;23;20044;-66
2022/11/28 11:51:01;;;;;;;5.13;2.25;;;;;;;;;;6135295;23;20028;-67
2022/11/28 11:53:30;;;;;;;5.40;2.20;;;;;;;;;;6134094;23;20100;-67
2022/11/28 11:55:59;;;;;;;6.38;2.10;;;;;;;;;;6119374;23;20100;-68
2022/11/28 11:58:31;;;;;;;5.28;2.15;;;;;;;;;;6051353;23;20088;-69
2022/11/28 12:00:59;;;;;;;4.78;2.15;;;;;;;;;;6109484;23;20025;-70
2022/11/28 12:03:28;;;;;;;5.28;2.13;;;;;;;;;;6092122;23;20021;-69
2022/11/28 12:05:56;;;;;;;5.50;2.08;;;;;;;;;;6132808;23;20021;-67
2022/11/28 12:08:26;;;;;;;6.30;2.53;;;;;;;;;;6101531;23;20025;-69
2022/11/28 12:10:55;;;;;;;5.35;2.35;;;;;;;;;;6091971;23;20036;-68
2022/11/28 12:13:23;;;;;;;8.20;2.72;;;;;;;;;;6056624;23;20206;-66
2022/11/28 12:15:59;;;;;;;3.90;2.08;;;;;;;;;;6072365;23;20076;-69
2022/11/28 12:18:33;;;;;;;4.68;2.30;;;;;;;;;;6079827;23;20029;-66
2022/11/28 12:21:10;;;;;;;4.85;2.38;;;;;;;;;;6082053;23;20120;-68
2022/11/28 12:23:53;;;;;;;5.40;2.33;;;;;;;;;;6093304;23;20025;-70
2022/11/28 12:26:23;;;;;;;5.85;2.35;;;;;;;;;;6041955;23;20036;-68
2022/11/28 12:28:59;;;;;;;6.13;2.28;;;;;;;;;;6045664;23;20101;-69
2022/11/28 12:31:32;;;;;;;4.88;2.17;;;;;;;;;;6107755;23;20173;-68
2022/11/28 12:34:04;;;;;;;5.50;2.35;;;;;;;;;;6069267;23;20025;-70
2022/11/28 12:36:33;;;;;;;5.13;2.08;;;;;;;;;;6054879;23;20116;-71
2022/11/28 12:39:05;;;;;;;6.85;2.88;;;;;;;;;;6097685;23;20025;-69
2022/11/28 12:41:47;;;;;;;5.97;2.40;;;;;;;;;;6081557;23;20030;-69
2022/11/28 12:44:17;;;;;;;4.30;2.00;;;;;;;;;;6084402;23;20226;-68
2022/11/28 12:46:47;;;;;;;5.00;2.28;;;;;;;;;;6093938;23;20089;-70
2022/11/28 12:49:19;;;;;;;5.85;2.30;;;;;;;;;;6093527;23;20014;-70
2022/11/28 12:51:52;;;;;;;5.15;2.15;;;;;;;;;;6120616;23;20052;-66
2022/11/28 12:54:33;;;;;;;6.05;2.13;;;;;;;;;;6077553;23;20036;-68
2022/11/28 12:57:02;;;;;;;6.43;2.50;;;;;;;;;;6089626;23;20022;-71
2022/11/28 12:59:35;;;;;;;6.95;3.10;;;;;;;;;;6072678;23;20105;-67
2022/11/28 13:02:15;;;;;;;7.25;2.67;;;;;;;;;;6084694;23;20032;-66
2022/11/28 13:04:49;;;;;;;7.07;2.72;;;;;;;;;;6076496;23;20052;-68
2022/11/28 13:07:20;;;;;;;5.57;2.53;;;;;;;;;;6105194;23;20175;-68
2022/11/28 13:09:53;;;;;;;9.43;3.45;;;;;;;;;;6078786;23;20048;-70
2022/11/28 13:12:22;;;;;;;6.25;2.65;;;;;;;;;;6135078;23;20025;-68
2022/11/28 13:14:52;;;;;;;9.18;3.38;;;;;;;;;;6114436;23;20026;-66
2022/11/28 13:17:24;;;;;;;8.90;3.85;;;;;;;;;;6016493;23;20063;-70
2022/11/28 13:19:54;;;;;;;8.18;3.72;;;;;;;;;;6082063;23;20022;-68
2022/11/28 13:22:23;;;;;;;8.18;3.80;;;;;;;;;;6117497;23;20052;-69
2022/11/28 13:25:05;;;;;;;6.63;3.00;;;;;;;;;;6065469;23;20035;-70
2022/11/28 13:27:36;;;;;;;7.95;3.35;;;;;;;;;;6038164;23;20025;-65
2022/11/28 13:30:13;;;;;;;6.88;3.33;;;;;;;;;;6086415;23;20025;-66
2022/11/28 13:32:44;;;;;;;8.32;3.70;;;;;;;;;;6095266;23;20029;-70
2022/11/28 13:35:11;;;;;;;11.57;4.72;;;;;;;;;;6100021;23;20025;-66
2022/11/28 13:37:43;;;;;;;11.52;4.38;;;;;;;;;;6033985;23;20029;-67
2022/11/28 13:40:17;;;;;;;11.00;4.13;;;;;;;;;;6111218;23;20029;-69
2022/11/28 13:42:47;;;;;;;11.35;4.28;;;;;;;;;;6058215;23;20051;-68
2022/11/28 13:45:20;;;;;;;11.60;4.70;;;;;;;;;;6068979;23;20026;-65
2022/11/28 13:47:47;;;;;;;10.38;4.57;;;;;;;;;;6007331;23;20036;-68
2022/11/28 13:50:36;;;;;;;11.00;4.60;;;;;;;;;;6133228;23;20022;-65
2022/11/28 13:53:03;;;;;;;8.25;3.17;;;;;;;;;;6087923;23;20025;-69
2022/11/28 13:55:45;;;;;;;10.13;4.32;;;;;;;;;;6094803;23;20025;-66
2022/11/28 13:58:19;;;;;;;9.40;3.60;;;;;;;;;;6052878;23;20017;-67
2022/11/28 14:01:03;;;;;;;10.85;3.97;;;;;;;;;;6087436;23;20017;-67
2022/11/28 14:03:32;;;;;;;8.82;3.83;;;;;;;;;;6135781;23;20029;-66
2022/11/28 14:06:01;;;;;;;10.02;3.83;;;;;;;;;;6107396;23;20029;-69
2022/11/28 14:08:33;;;;;;;6.88;3.45;;;;;;;;;;6063925;23;20029;-68
2022/11/28 14:11:13;;;;;;;9.52;3.60;;;;;;;;;;6095631;23;20076;-70
2022/11/28 14:13:51;;;;;;;10.98;4.43;;;;;;;;;;6111109;23;20030;-72
2022/11/28 14:16:23;;;;;;;10.98;3.83;;;;;;;;;;6056486;23;20049;-71
2022/11/28 14:19:03;;;;;;;8.50;4.05;;;;;;;;;;6100798;23;20047;-70
2022/11/28 14:21:38;;;;;;;8.38;3.58;;;;;;;;;;6107233;23;20032;-70
2022/11/28 14:24:09;;;;;;;8.82;3.55;;;;;;;;;;6075600;23;20100;-70
2022/11/28 14:26:37;;;;;;;10.13;3.58;;;;;;;;;;6054513;23;20048;-66
2022/11/28 14:29:04;;;;;;;9.20;3.95;;;;;;;;;;6096678;23;20033;-68
2022/11/28 14:31:33;;;;;;;10.23;3.90;;;;;;;;;;6095677;23;20029;-70
2022/11/28 14:34:02;;;;;;;7.53;3.30;;;;;;;;;;6099468;23;20109;-65
2022/11/28 14:36:29;;;;;;;10.55;3.83;;;;;;;;;;6064482;23;20281;-68
2022/11/28 14:39:10;;;;;;;8.18;3.85;;;;;;;;;;6082612;23;20021;-64
2022/11/28 14:41:55;;;;;;;8.80;3.70;;;;;;;;;;6093358;23;20031;-66
2022/11/28 14:44:55;;;;;;;11.35;4.15;;;;;;;;;;6080927;23;20029;-62
2022/11/28 14:47:28;;;;;;;9.18;3.40;;;;;;;;;;6014151;23;20029;-65
2022/11/28 14:50:09;;;;;;;8.52;4.00;;;;;;;;;;6031421;23;20023;-65
2022/11/28 14:52:39;;;;;;;10.13;3.97;;;;;;;;;;5992075;23;20106;-67
2022/11/28 14:55:14;;;;;;;9.88;4.18;;;;;;;;;;5997583;23;20105;-67
2022/11/28 14:57:51;;;;;;;9.07;4.25;;;;;;;;;;5989319;23;20055;-67